Time;durP1;ratioP1;P1;durP2;ratioP2;P2;SDS_P1;SDS_P2;PMS_P1;PMS_P2;Temp;Humidity;BMP_temperature;BMP_pressure;BME280_temperature;BME280_humidity;BME280_pressure;Samples;Min_cycle;Max_cycle;Signal;HPM_P1;HPM_P2
2023/03/06 00:01:00;;;;;;;6.43;2.95;;;;;;;4.67;100.00;100784.69;5096576;28;20174;-63
2023/03/06 00:03:28;;;;;;;6.28;3.33;;;;;;;4.64;100.00;100777.06;5096056;28;20131;-63
2023/03/06 00:05:57;;;;;;;4.95;3.15;;;;;;;4.63;100.00;100778.09;5102952;28;20134;-64
2023/03/06 00:08:26;;;;;;;5.50;2.80;;;;;;;4.62;100.00;100773.75;5115360;27;20058;-64
2023/03/06 00:10:55;;;;;;;5.85;3.20;;;;;;;4.61;100.00;100776.69;5114822;27;20043;-63
2023/03/06 00:13:25;;;;;;;4.90;3.00;;;;;;;4.61;100.00;100780.19;5092838;28;20048;-64
2023/03/06 00:15:53;;;;;;;5.60;3.28;;;;;;;4.58;100.00;100783.34;5096881;27;20044;-64
2023/03/06 00:18:20;;;;;;;7.38;3.53;;;;;;;4.55;100.00;100773.03;5104075;27;20098;-64
2023/03/06 00:20:48;;;;;;;5.18;2.90;;;;;;;4.55;100.00;100781.13;5098633;27;20157;-64
2023/03/06 00:23:16;;;;;;;5.97;3.20;;;;;;;4.56;100.00;100776.53;5115651;27;20050;-64
2023/03/06 00:25:44;;;;;;;5.40;3.22;;;;;;;4.56;100.00;100769.25;5116417;28;20040;-64
2023/03/06 00:28:14;;;;;;;6.13;3.10;;;;;;;4.57;100.00;100762.00;5100963;27;20051;-65
2023/03/06 00:30:43;;;;;;;5.80;3.28;;;;;;;4.53;100.00;100766.22;5095833;28;20048;-65
2023/03/06 00:33:11;;;;;;;7.60;3.50;;;;;;;4.52;100.00;100765.38;5102035;27;20100;-64
2023/03/06 00:35:41;;;;;;;6.57;3.53;;;;;;;4.53;100.00;100755.44;5108491;27;20052;-62
2023/03/06 00:38:12;;;;;;;7.85;3.90;;;;;;;4.50;100.00;100751.31;5106788;27;20051;-63
2023/03/06 00:40:39;;;;;;;7.20;3.75;;;;;;;4.49;100.00;100765.84;5105902;27;20050;-65
2023/03/06 00:43:07;;;;;;;5.38;3.50;;;;;;;4.48;100.00;100748.03;5118787;27;20039;-64
2023/03/06 00:45:35;;;;;;;6.30;3.42;;;;;;;4.47;100.00;100738.25;5114522;28;20419;-63
2023/03/06 00:48:03;;;;;;;5.75;3.50;;;;;;;4.46;100.00;100733.94;5110640;28;20035;-64
2023/03/06 00:50:30;;;;;;;5.10;3.40;;;;;;;4.47;100.00;100735.56;5080882;28;20044;-64
2023/03/06 00:52:59;;;;;;;5.63;3.40;;;;;;;4.44;100.00;100728.75;5095388;28;20051;-63
2023/03/06 00:55:28;;;;;;;9.15;3.65;;;;;;;4.43;100.00;100727.13;5094034;28;20488;-63
2023/03/06 00:57:56;;;;;;;5.88;3.60;;;;;;;4.42;100.00;100727.34;5107795;28;20096;-64
2023/03/06 01:00:23;;;;;;;7.18;3.50;;;;;;;4.41;100.00;100723.00;5115338;28;20097;-64
2023/03/06 01:02:52;;;;;;;6.10;3.35;;;;;;;4.38;100.00;100724.28;5115710;28;20391;-63
2023/03/06 01:05:21;;;;;;;8.18;3.72;;;;;;;4.38;100.00;100726.19;5109972;28;20506;-63
2023/03/06 01:07:49;;;;;;;5.90;3.65;;;;;;;4.36;100.00;100725.56;5102549;28;20116;-64
2023/03/06 01:10:17;;;;;;;7.57;3.50;;;;;;;4.34;100.00;100716.88;5093742;28;20075;-64
2023/03/06 01:12:44;;;;;;;4.40;3.20;;;;;;;4.34;100.00;100725.78;5076771;28;20407;-64
2023/03/06 01:15:12;;;;;;;7.35;3.70;;;;;;;4.35;100.00;100721.22;5097819;28;20601;-63
2023/03/06 01:17:40;;;;;;;6.57;3.63;;;;;;;4.35;100.00;100722.03;5107205;27;20050;-64
2023/03/06 01:20:14;;;;;;;6.88;3.50;;;;;;;4.35;100.00;100718.53;5108530;28;20115;-63
2023/03/06 01:22:42;;;;;;;5.15;3.30;;;;;;;4.35;100.00;100715.81;5084829;28;20039;-65
2023/03/06 01:25:10;;;;;;;5.20;3.30;;;;;;;4.35;100.00;100718.53;5112199;27;20510;-63
2023/03/06 01:27:37;;;;;;;5.25;3.50;;;;;;;4.32;100.00;100709.00;5076585;28;20072;-63
2023/03/06 01:30:06;;;;;;;6.93;3.67;;;;;;;4.32;100.00;100711.72;5092109;28;20044;-63
2023/03/06 01:32:34;;;;;;;6.03;3.30;;;;;;;4.31;100.00;100712.78;5102020;28;20039;-63
2023/03/06 01:35:02;;;;;;;6.00;3.40;;;;;;;4.30;100.00;100713.81;5114133;27;20441;-65
2023/03/06 01:37:30;;;;;;;5.63;3.17;;;;;;;4.29;100.00;100708.66;5098364;28;20557;-64
2023/03/06 01:39:57;;;;;;;6.57;3.53;;;;;;;4.27;100.00;100704.31;5099829;27;20051;-64
2023/03/06 01:42:25;;;;;;;5.78;3.47;;;;;;;4.25;100.00;100708.28;5112504;28;20053;-62
2023/03/06 01:45:16;;;;;;;6.28;3.63;;;;;;;4.23;100.00;100699.59;5109379;27;20036;-67
2023/03/06 01:47:44;;;;;;;5.40;3.63;;;;;;;4.21;100.00;100697.16;5088289;28;20047;-65
2023/03/06 01:50:12;;;;;;;6.43;3.25;;;;;;;4.21;100.00;100699.84;5113831;28;20065;-63
2023/03/06 01:52:44;;;;;;;5.47;3.42;;;;;;;4.21;100.00;100691.75;5092390;28;20051;-63
2023/03/06 01:55:15;;;;;;;6.47;3.50;;;;;;;4.21;100.00;100686.38;5100918;27;20399;-64
2023/03/06 01:57:46;;;;;;;5.97;3.60;;;;;;;4.21;100.00;100680.13;5110397;27;20045;-63
2023/03/06 02:00:17;;;;;;;6.57;3.80;;;;;;;4.21;100.00;100667.47;5092158;28;20377;-63
2023/03/06 02:02:56;;;;;;;6.97;3.85;;;;;;;4.19;100.00;100674.97;5109036;28;20074;-64
2023/03/06 02:05:43;;;;;;;;;;;;;;;4.20;100.00;100670.41;5110798;28;20048;-63
2023/03/06 02:08:14;;;;;;;5.10;3.72;;;;;;;4.19;100.00;100669.59;5110119;27;19926;-64
2023/03/06 02:11:03;;;;;;;6.85;3.83;;;;;;;4.18;100.00;100661.72;5113000;28;20406;-65
2023/03/06 02:13:31;;;;;;;8.27;4.47;;;;;;;4.17;100.00;100666.28;5104808;27;20051;-64
2023/03/06 02:16:03;;;;;;;8.43;4.18;;;;;;;4.15;100.00;100667.56;5102492;28;20136;-65
2023/03/06 02:18:33;;;;;;;6.75;4.20;;;;;;;4.14;100.00;100661.38;5115903;27;20047;-64
2023/03/06 02:21:07;;;;;;;6.97;4.20;;;;;;;4.11;100.00;100667.19;5112466;28;20077;-64
2023/03/06 02:24:06;;;;;;;7.75;4.65;;;;;;;4.10;100.00;100659.34;5113550;28;20052;-64
2023/03/06 02:26:35;;;;;;;9.50;4.78;;;;;;;4.09;100.00;100653.16;5112006;28;20044;-63
2023/03/06 02:29:03;;;;;;;7.80;4.78;;;;;;;4.08;100.00;100651.47;5092991;28;20076;-64
2023/03/06 02:31:33;;;;;;;8.35;4.95;;;;;;;4.07;100.00;100646.34;5095324;28;20055;-64
2023/03/06 02:34:12;;;;;;;7.55;4.93;;;;;;;4.02;100.00;100644.31;5087859;28;20043;-63
2023/03/06 02:36:51;;;;;;;9.88;5.07;;;;;;;4.00;100.00;100646.44;5105244;28;20052;-63
2023/03/06 02:39:22;;;;;;;8.20;4.97;;;;;;;3.97;100.00;100649.56;5105879;28;20044;-63
2023/03/06 02:41:50;;;;;;;8.25;5.00;;;;;;;3.96;100.00;100645.22;5093658;28;21843;-64
2023/03/06 02:44:20;;;;;;;9.30;5.15;;;;;;;3.96;100.00;100642.53;5098461;28;20047;-64
2023/03/06 02:46:48;;;;;;;7.90;5.30;;;;;;;3.95;100.00;100641.72;5094576;28;20535;-64
2023/03/06 02:49:16;;;;;;;9.32;4.95;;;;;;;3.94;100.00;100639.25;5095577;28;20122;-65
2023/03/06 02:51:44;;;;;;;8.38;5.13;;;;;;;3.93;100.00;100637.59;5113806;28;20052;-63
2023/03/06 02:54:12;;;;;;;9.48;5.35;;;;;;;3.89;100.00;100637.22;5117348;28;20044;-63
2023/03/06 02:56:42;;;;;;;9.00;5.45;;;;;;;3.88;100.00;100637.47;5102826;28;20048;-65
2023/03/06 02:59:10;;;;;;;9.48;5.38;;;;;;;3.86;100.00;100635.00;5092696;28;20036;-63
2023/03/06 03:01:38;;;;;;;7.72;4.93;;;;;;;3.84;100.00;100634.41;5118405;27;20067;-64
2023/03/06 03:04:06;;;;;;;8.77;5.40;;;;;;;3.83;100.00;100635.47;5132487;27;20044;-65
2023/03/06 03:06:34;;;;;;;8.05;5.53;;;;;;;3.81;100.00;100629.47;5121938;28;20552;-63
2023/03/06 03:09:02;;;;;;;8.05;5.25;;;;;;;3.83;100.00;100628.19;5115691;27;20479;-62
2023/03/06 03:11:30;;;;;;;8.18;5.20;;;;;;;3.83;100.00;100628.19;5125891;27;20054;-62
2023/03/06 03:13:58;;;;;;;9.57;5.63;;;;;;;3.81;100.00;100618.69;5098776;28;20039;-64
2023/03/06 03:16:28;;;;;;;10.00;5.78;;;;;;;3.78;100.00;100606.50;5096525;28;20480;-63
2023/03/06 03:18:58;;;;;;;8.57;5.38;;;;;;;3.80;100.00;100607.09;5114411;28;20043;-63
2023/03/06 03:21:27;;;;;;;9.73;5.50;;;;;;;3.81;100.00;100605.22;5116789;27;20075;-63
2023/03/06 03:23:55;;;;;;;8.48;5.25;;;;;;;3.82;100.00;100605.00;5114975;28;20044;-64
2023/03/06 03:26:26;;;;;;;9.30;5.47;;;;;;;3.81;100.00;100597.13;5114730;28;20040;-63
2023/03/06 03:29:06;;;;;;;9.07;5.72;;;;;;;3.79;100.00;100600.03;5096999;28;20040;-63
2023/03/06 03:31:34;;;;;;;11.75;5.63;;;;;;;3.78;100.00;100590.34;5087990;27;20055;-65
2023/03/06 03:34:02;;;;;;;11.43;5.70;;;;;;;3.76;100.00;100578.94;5115194;28;20419;-65
2023/03/06 03:36:33;;;;;;;8.73;5.40;;;;;;;3.77;100.00;100579.78;5098656;28;20491;-63
2023/03/06 03:39:02;;;;;;;7.95;5.60;;;;;;;3.77;100.00;100580.59;5097631;27;20051;-64
2023/03/06 03:41:31;;;;;;;8.80;5.80;;;;;;;3.75;100.00;100580.03;5096149;28;20048;-64
2023/03/06 03:43:58;;;;;;;8.55;5.57;;;;;;;3.77;100.00;100574.38;5083623;28;20032;-63
2023/03/06 03:46:26;;;;;;;8.23;5.18;;;;;;;3.78;100.00;100565.25;5100029;28;20071;-65
2023/03/06 03:48:56;;;;;;;8.95;5.72;;;;;;;3.78;100.00;100576.84;5111878;27;20059;-64
2023/03/06 03:51:23;;;;;;;9.52;5.80;;;;;;;3.77;100.00;100572.50;5104328;27;20403;-63
2023/03/06 03:53:55;;;;;;;9.63;6.07;;;;;;;3.75;100.00;100566.53;5115278;28;20044;-65
2023/03/06 03:56:25;;;;;;;10.05;5.70;;;;;;;3.74;100.00;100561.38;5095753;28;20048;-64
2023/03/06 03:59:02;;;;;;;8.93;6.20;;;;;;;3.70;100.00;100563.69;5109137;27;20043;-63
2023/03/06 04:01:36;;;;;;;10.05;5.82;;;;;;;3.70;100.00;100558.31;5095835;28;20048;-63
2023/03/06 04:04:06;;;;;;;9.60;5.93;;;;;;;3.69;100.00;100559.38;5095112;28;20040;-63
2023/03/06 04:06:35;;;;;;;7.85;5.63;;;;;;;3.67;100.00;100564.16;5095964;27;20492;-62
2023/03/06 04:09:04;;;;;;;9.52;6.15;;;;;;;3.70;100.00;100565.56;5112183;27;20085;-64
2023/03/06 04:11:32;;;;;;;10.85;6.60;;;;;;;3.70;100.00;100558.31;5093599;28;20450;-62
2023/03/06 04:14:00;;;;;;;9.75;6.20;;;;;;;3.70;100.00;100558.31;5113320;27;20054;-63
2023/03/06 04:16:28;;;;;;;9.60;5.95;;;;;;;3.66;100.00;100554.44;5114382;27;20071;-63
2023/03/06 04:18:56;;;;;;;9.82;6.30;;;;;;;3.66;100.00;100551.75;5110900;28;20059;-65
2023/03/06 04:21:24;;;;;;;10.85;6.47;;;;;;;3.66;100.00;100550.94;5108784;27;20040;-67
2023/03/06 04:23:51;;;;;;;8.95;5.95;;;;;;;3.65;100.00;100549.28;5115348;27;20054;-64
2023/03/06 04:26:20;;;;;;;9.80;6.25;;;;;;;3.63;100.00;100541.41;5101992;27;20072;-64
2023/03/06 04:28:48;;;;;;;9.73;6.15;;;;;;;3.63;100.00;100546.78;5094712;27;20040;-64
2023/03/06 04:31:16;;;;;;;9.20;6.13;;;;;;;3.63;100.00;100549.50;5105287;27;20067;-64
2023/03/06 04:33:43;;;;;;;9.60;6.07;;;;;;;3.61;100.00;100538.16;5101951;28;20061;-63
2023/03/06 04:36:31;;;;;;;8.30;5.93;;;;;;;3.60;100.00;100540.00;5112790;27;20056;-65
2023/03/06 04:39:04;;;;;;;8.88;6.10;;;;;;;3.57;100.00;100542.34;5101666;27;20097;-63
2023/03/06 04:41:34;;;;;;;10.73;6.35;;;;;;;3.55;100.00;100534.47;5119092;27;20055;-65
2023/03/06 04:44:02;;;;;;;10.60;6.25;;;;;;;3.53;100.00;100546.53;5108982;27;20455;-62
2023/03/06 04:46:30;;;;;;;8.90;5.78;;;;;;;3.53;100.00;100546.53;5116335;27;20645;-62
2023/03/06 04:48:57;;;;;;;9.70;6.05;;;;;;;3.53;100.00;100541.13;5109433;27;20035;-64
2023/03/06 04:51:25;;;;;;;8.85;5.97;;;;;;;3.52;100.00;100534.13;5095050;27;20048;-65
2023/03/06 04:53:52;;;;;;;10.38;6.20;;;;;;;3.53;100.00;100535.75;5109974;28;20091;-64
2023/03/06 04:56:20;;;;;;;10.57;6.13;;;;;;;3.53;100.00;100527.66;5094993;28;20047;-64
2023/03/06 04:58:48;;;;;;;11.48;6.45;;;;;;;3.52;100.00;100526.84;5112740;28;20039;-63
2023/03/06 05:01:15;;;;;;;9.57;6.68;;;;;;;3.52;100.00;100523.34;5111623;27;20046;-64
2023/03/06 05:03:43;;;;;;;9.75;6.30;;;;;;;3.51;100.00;100524.38;5113441;28;20051;-62
2023/03/06 05:06:11;;;;;;;9.32;6.43;;;;;;;3.54;100.00;100521.25;5104180;27;20424;-65
2023/03/06 05:08:38;;;;;;;9.05;6.30;;;;;;;3.56;100.00;100530.75;5111374;27;20048;-64
2023/03/06 05:11:06;;;;;;;11.88;6.47;;;;;;;3.57;100.00;100518.09;5093876;28;20058;-65
2023/03/06 05:13:33;;;;;;;9.52;6.20;;;;;;;3.57;100.00;100516.22;5105081;27;20055;-63
2023/03/06 05:16:03;;;;;;;11.45;6.60;;;;;;;3.58;100.00;100515.19;5094327;28;20055;-64
2023/03/06 05:18:31;;;;;;;10.73;7.40;;;;;;;3.58;100.00;100509.78;5113669;27;20473;-64
2023/03/06 05:20:59;;;;;;;11.10;7.20;;;;;;;3.58;100.00;100517.03;5111783;27;20043;-63
2023/03/06 05:23:28;;;;;;;11.05;6.85;;;;;;;3.55;100.00;100515.63;5103962;27;20066;-64
2023/03/06 05:25:57;;;;;;;10.32;6.97;;;;;;;3.56;100.00;100513.75;5096715;28;20052;-64
2023/03/06 05:28:27;;;;;;;13.32;7.38;;;;;;;3.56;100.00;100514.59;5111098;27;20040;-64
2023/03/06 05:30:55;;;;;;;13.60;7.90;;;;;;;3.56;100.00;100508.34;5114244;28;20043;-64
2023/03/06 05:33:22;;;;;;;16.15;8.50;;;;;;;3.55;100.00;100504.84;5094709;28;20040;-64
2023/03/06 05:35:50;;;;;;;10.48;7.72;;;;;;;3.56;100.00;100508.34;5094418;28;20052;-65
2023/03/06 05:38:18;;;;;;;14.20;8.48;;;;;;;3.54;100.00;100499.72;5111741;27;20048;-64
2023/03/06 05:40:46;;;;;;;13.15;8.60;;;;;;;3.54;100.00;100502.41;5113632;27;20047;-63
2023/03/06 05:43:13;;;;;;;14.10;8.35;;;;;;;3.53;100.00;100487.28;5111972;28;20079;-64
2023/03/06 05:45:41;;;;;;;13.55;8.13;;;;;;;3.55;100.00;100485.97;5114498;27;20059;-64
2023/03/06 05:48:11;;;;;;;12.75;9.05;;;;;;;3.55;100.00;100485.16;5104732;27;20133;-64
2023/03/06 05:50:39;;;;;;;13.25;8.73;;;;;;;3.57;100.00;100491.16;5094410;28;20039;-65
2023/03/06 05:53:07;;;;;;;12.20;8.45;;;;;;;3.56;100.00;100493.03;5112529;27;20134;-64
2023/03/06 05:55:35;;;;;;;13.70;8.55;;;;;;;3.56;100.00;100489.50;5113677;28;20054;-63
2023/03/06 05:58:02;;;;;;;14.75;9.80;;;;;;;3.54;100.00;100492.44;5112046;28;20046;-65
2023/03/06 06:00:30;;;;;;;15.05;10.88;;;;;;;3.55;100.00;100490.56;5115305;27;20086;-63
2023/03/06 06:03:01;;;;;;;13.75;10.00;;;;;;;3.56;100.00;100494.88;5113436;28;20049;-62
2023/03/06 06:05:29;;;;;;;13.18;9.73;;;;;;;3.56;100.00;100489.50;5108136;28;20062;-62
2023/03/06 06:07:56;;;;;;;15.13;10.80;;;;;;;3.55;100.00;100487.88;5107911;27;20047;-61
2023/03/06 06:10:24;;;;;;;15.30;10.85;;;;;;;3.55;100.00;100487.88;5112246;27;20036;-64
2023/03/06 06:12:52;;;;;;;15.52;10.85;;;;;;;3.54;100.00;100495.13;5106675;27;20047;-64
2023/03/06 06:15:19;;;;;;;13.68;10.27;;;;;;;3.53;100.00;100489.97;5114417;28;20055;-63
2023/03/06 06:17:47;;;;;;;15.85;11.02;;;;;;;3.54;100.00;100494.31;5104643;27;20059;-64
2023/03/06 06:20:16;;;;;;;15.20;10.77;;;;;;;3.55;100.00;100493.25;5095881;28;20806;-62
2023/03/06 06:22:43;;;;;;;15.35;11.07;;;;;;;3.55;100.00;100488.69;5111711;28;20046;-63
2023/03/06 06:25:11;;;;;;;15.38;11.70;;;;;;;3.54;100.00;100494.31;5110835;28;20047;-63
2023/03/06 06:27:39;;;;;;;17.77;12.25;;;;;;;3.54;100.00;100497.00;5113066;28;20052;-64
2023/03/06 06:30:11;;;;;;;18.10;12.30;;;;;;;3.54;100.00;100492.44;5113535;28;20053;-63
2023/03/06 06:32:39;;;;;;;17.90;13.48;;;;;;;3.55;100.00;100488.69;5112049;28;20047;-64
2023/03/06 06:35:07;;;;;;;16.35;13.02;;;;;;;3.57;100.00;100485.78;5110942;28;20075;-66
2023/03/06 06:37:35;;;;;;;17.73;12.73;;;;;;;3.57;100.00;100488.47;5112967;28;20059;-64
2023/03/06 06:40:03;;;;;;;17.13;12.55;;;;;;;3.57;100.00;100483.06;5093244;28;20506;-67
2023/03/06 06:42:31;;;;;;;15.13;11.77;;;;;;;3.56;100.00;100486.81;5100634;28;20480;-64
2023/03/06 06:45:09;;;;;;;17.05;12.90;;;;;;;3.57;100.00;100483.06;5077570;28;20044;-63
2023/03/06 06:47:40;;;;;;;20.15;15.40;;;;;;;3.45;100.00;100490.31;4389581;28;10000310;-65
2023/03/06 06:50:11;;;;;;;18.83;16.17;;;;;;;3.32;100.00;100492.13;5075542;28;20476;-65
2023/03/06 06:52:40;;;;;;;21.35;16.02;;;;;;;3.24;100.00;100489.75;5107935;28;20111;-63
2023/03/06 06:55:08;;;;;;;21.60;15.75;;;;;;;3.24;100.00;100489.75;5126456;28;20407;-64
2023/03/06 06:57:36;;;;;;;20.67;15.93;;;;;;;3.22;100.00;100493.72;5093982;28;20059;-64
2023/03/06 07:00:04;;;;;;;17.92;12.38;;;;;;;3.29;100.00;100497.94;5117968;28;20071;-66
2023/03/06 07:02:32;;;;;;;23.48;15.20;;;;;;;3.39;100.00;100503.63;5123838;28;20048;-64
2023/03/06 07:05:00;;;;;;;18.42;13.88;;;;;;;3.45;100.00;100501.06;5099806;28;20048;-64
2023/03/06 07:07:34;;;;;;;20.02;13.75;;;;;;;3.50;100.00;100491.25;5091856;28;20059;-66
2023/03/06 07:10:05;;;;;;;20.38;14.48;;;;;;;3.50;100.00;100498.50;5072680;28;20055;-64
2023/03/06 07:12:33;;;;;;;18.70;13.95;;;;;;;3.52;100.00;100496.41;5095300;28;20048;-65
2023/03/06 07:15:02;;;;;;;18.70;14.45;;;;;;;3.51;100.00;100497.44;5108740;28;20055;-62
2023/03/06 07:17:30;;;;;;;19.38;14.32;;;;;;;3.47;100.00;100497.09;5079025;28;20101;-65
2023/03/06 07:19:58;;;;;;;20.25;14.48;;;;;;;3.44;100.00;100502.09;5092797;28;20051;-63
2023/03/06 07:22:26;;;;;;;20.75;14.88;;;;;;;3.41;100.00;100509.59;5096398;28;20105;-64
2023/03/06 07:24:58;;;;;;;20.42;14.15;;;;;;;3.40;100.00;100507.97;5089704;28;20047;-66
2023/03/06 07:27:26;;;;;;;18.55;14.13;;;;;;;3.39;100.00;100509.03;5085766;28;20056;-64
2023/03/06 07:29:53;;;;;;;19.02;14.20;;;;;;;3.39;100.00;100509.03;5088988;28;20189;-65
2023/03/06 07:32:21;;;;;;;18.10;14.18;;;;;;;3.42;100.00;100507.75;5088897;28;20488;-65
2023/03/06 07:34:49;;;;;;;17.90;13.82;;;;;;;3.45;100.00;100517.22;5088047;28;20514;-64
2023/03/06 07:37:17;;;;;;;18.08;14.00;;;;;;;3.47;100.00;100515.94;5105309;28;20079;-65
2023/03/06 07:39:44;;;;;;;19.33;14.32;;;;;;;3.47;100.00;100510.56;5105390;28;20047;-64
2023/03/06 07:42:13;;;;;;;17.98;13.18;;;;;;;3.49;100.00;100507.63;5108135;27;20066;-64
2023/03/06 07:44:50;;;;;;;17.50;14.32;;;;;;;3.51;100.00;100510.91;5090441;28;20151;-65
2023/03/06 07:47:18;;;;;;;18.70;14.52;;;;;;;3.49;100.00;100513.00;5091577;27;20060;-63
2023/03/06 07:49:45;;;;;;;19.67;14.15;;;;;;;3.48;100.00;100506.00;5098892;28;20518;-64
2023/03/06 07:52:13;;;;;;;18.88;13.35;;;;;;;3.55;100.00;100506.72;5109614;28;20043;-65
2023/03/06 07:54:41;;;;;;;18.20;13.55;;;;;;;3.59;100.00;100502.53;5092104;28;20508;-65
2023/03/06 07:57:08;;;;;;;17.15;13.95;;;;;;;3.60;100.00;100512.25;5081758;28;20066;-65
2023/03/06 07:59:36;;;;;;;17.85;13.38;;;;;;;3.57;100.00;100507.31;5116539;28;20054;-63
2023/03/06 08:02:04;;;;;;;18.25;13.27;;;;;;;3.58;100.00;100506.25;5114813;28;20101;-62
2023/03/06 08:04:32;;;;;;;17.15;13.82;;;;;;;3.53;100.00;100503.44;5108466;28;20051;-64
2023/03/06 08:07:00;;;;;;;18.73;14.38;;;;;;;3.51;100.00;100517.16;5100559;28;20082;-62
2023/03/06 08:09:28;;;;;;;23.45;18.50;;;;;;;3.46;100.00;100502.69;5061466;28;20471;-63
2023/03/06 08:11:56;;;;;;;21.58;15.38;;;;;;;3.42;100.00;100510.44;5094777;28;20040;-63
2023/03/06 08:14:23;;;;;;;20.02;16.55;;;;;;;3.49;100.00;100513.84;5095020;28;20044;-64
2023/03/06 08:16:54;;;;;;;20.90;14.88;;;;;;;3.55;100.00;100507.53;5103969;27;20495;-62
2023/03/06 08:19:21;;;;;;;19.38;14.60;;;;;;;3.59;100.00;100503.34;5108528;27;20579;-62
2023/03/06 08:21:49;;;;;;;19.27;13.90;;;;;;;3.66;100.00;100507.81;5109900;27;20055;-64
2023/03/06 08:24:17;;;;;;;19.83;15.55;;;;;;;3.65;100.00;100509.69;5096272;28;20052;-62
2023/03/06 08:26:45;;;;;;;19.23;14.32;;;;;;;3.68;100.00;100514.63;5103043;27;20048;-64
2023/03/06 08:29:14;;;;;;;19.70;14.20;;;;;;;3.69;100.00;100513.56;5116728;28;20418;-63
2023/03/06 08:31:43;;;;;;;17.80;13.80;;;;;;;3.68;100.00;100509.22;5116171;28;20078;-64
2023/03/06 08:34:17;;;;;;;19.30;14.50;;;;;;;3.71;100.00;100513.34;5114606;28;20039;-63
2023/03/06 08:36:45;;;;;;;19.95;13.45;;;;;;;3.75;100.00;100517.19;5097522;28;20055;-63
2023/03/06 08:39:13;;;;;;;18.40;13.52;;;;;;;3.79;100.00;100521.09;5095135;28;20075;-63
2023/03/06 08:41:43;;;;;;;17.25;13.25;;;;;;;3.78;100.00;100522.97;5094224;28;20048;-63
2023/03/06 08:44:11;;;;;;;19.05;13.75;;;;;;;3.75;100.00;100522.59;5095690;28;20051;-63
2023/03/06 08:46:40;;;;;;;18.17;12.73;;;;;;;3.68;100.00;100522.72;5092274;28;20055;-63
2023/03/06 08:49:08;;;;;;;17.63;11.70;;;;;;;3.67;100.00;100521.03;5114355;28;20046;-63
2023/03/06 08:51:35;;;;;;;18.13;12.57;;;;;;;3.73;100.00;100522.84;5114140;28;20048;-63
2023/03/06 08:54:03;;;;;;;17.73;12.65;;;;;;;3.84;100.00;100519.31;5115609;28;20043;-63
2023/03/06 08:56:33;;;;;;;13.95;11.38;;;;;;;3.89;100.00;100520.53;5096619;27;20115;-64
2023/03/06 08:59:02;;;;;;;14.90;11.35;;;;;;;3.89;100.00;100507.03;5094950;28;20040;-63
2023/03/06 09:01:33;;;;;;;15.38;9.95;;;;;;;3.89;100.00;100515.94;5093884;28;20048;-63
2023/03/06 09:04:04;;;;;;;14.48;10.00;;;;;;;3.93;100.00;100509.03;5094087;28;20040;-64
2023/03/06 09:06:35;;;;;;;12.43;9.43;;;;;;;3.97;100.00;100510.22;5077165;28;20419;-63
2023/03/06 09:09:03;;;;;;;14.68;9.60;;;;;;;4.02;100.00;100512.22;5094357;28;20048;-64
2023/03/06 09:11:30;;;;;;;13.43;9.55;;;;;;;4.05;100.00;100511.75;5076830;28;20048;-62
2023/03/06 09:13:58;;;;;;;14.52;9.90;;;;;;;4.06;100.00;100505.31;5076626;28;20086;-63
2023/03/06 09:16:26;;;;;;;12.52;9.30;;;;;;;4.02;100.00;100506.84;5112762;28;20138;-64
2023/03/06 09:18:56;;;;;;;13.88;9.68;;;;;;;4.02;100.00;100506.84;5110449;27;20118;-64
2023/03/06 09:21:25;;;;;;;12.43;8.30;;;;;;;3.99;100.00;100505.44;5076080;28;20047;-64
2023/03/06 09:23:52;;;;;;;10.68;6.95;;;;;;;4.00;100.00;100511.66;5061291;28;20052;-63
2023/03/06 09:26:20;;;;;;;10.18;5.40;;;;;;;3.96;100.00;100511.28;5112477;28;20051;-64
2023/03/06 09:28:49;;;;;;;8.82;5.32;;;;;;;3.98;100.00;100511.88;5116473;28;20044;-63
2023/03/06 09:31:18;;;;;;;10.27;5.70;;;;;;;4.11;100.00;100521.59;5116460;28;20051;-63
2023/03/06 09:33:47;;;;;;;9.65;5.85;;;;;;;4.17;100.00;100520.69;5097470;28;20051;-64
2023/03/06 09:36:20;;;;;;;7.53;4.93;;;;;;;4.09;100.00;100518.34;5093737;28;20117;-63
2023/03/06 09:38:48;;;;;;;9.30;5.03;;;;;;;4.08;100.00;100516.69;5093315;28;20050;-63
2023/03/06 09:41:25;;;;;;;8.93;5.15;;;;;;;4.14;100.00;100521.16;5076526;28;20052;-63
2023/03/06 09:44:03;;;;;;;7.43;4.95;;;;;;;4.22;100.00;100523.50;5093916;28;20496;-64
2023/03/06 09:47:09;;;;;;;7.43;4.78;;;;;;;4.20;100.00;100520.22;5114567;28;20079;-64
2023/03/06 09:49:40;;;;;;;;;;;;;;;4.25;100.00;100512.22;5032413;28;20057;-64
2023/03/06 09:52:27;;;;;;;9.90;4.90;;;;;;;4.44;100.00;100520.22;5015432;28;19927;-63
2023/03/06 09:55:03;;;;;;;7.72;5.00;;;;;;;4.44;100.00;100518.34;5085736;28;20063;-63
2023/03/06 09:57:36;;;;;;;5.25;3.85;;;;;;;4.37;99.06;100514.13;5114221;28;20552;-64
2023/03/06 10:00:19;;;;;;;6.57;4.10;;;;;;;4.36;99.63;100512.50;5113012;28;20414;-64
2023/03/06 10:02:55;;;;;;;7.60;4.55;;;;;;;4.37;100.00;100516.81;5114024;28;20054;-64
2023/03/06 10:05:40;;;;;;;7.50;4.80;;;;;;;4.39;100.00;100525.50;5079126;28;20040;-64
2023/03/06 10:08:39;;;;;;;6.95;4.05;;;;;;;4.44;100.00;100528.31;5114475;28;20123;-62
2023/03/06 10:11:09;;;;;;;6.88;4.10;;;;;;;4.47;98.84;100523.28;5096056;28;20036;-61
2023/03/06 10:13:46;;;;;;;6.53;3.45;;;;;;;4.52;97.87;100511.75;5094069;28;20051;-63
2023/03/06 10:16:31;;;;;;;8.30;3.80;;;;;;;4.57;97.53;100503.81;5076289;28;20100;-62
2023/03/06 10:19:02;;;;;;;10.30;5.05;;;;;;;4.76;100.00;100511.75;5075605;28;20044;-64
2023/03/06 10:21:57;;;;;;;9.80;5.78;;;;;;;4.81;100.00;100519.94;5092988;28;20109;-63
2023/03/06 10:24:34;;;;;;;8.50;4.88;;;;;;;4.87;100.00;100505.50;5088602;28;20117;-62
2023/03/06 10:27:26;;;;;;;8.90;4.85;;;;;;;4.86;99.12;100509.28;5094257;28;20137;-64
2023/03/06 10:30:09;;;;;;;7.78;4.88;;;;;;;4.85;97.91;100510.31;5093499;28;20110;-63
2023/03/06 10:32:57;;;;;;;6.93;4.38;;;;;;;4.74;97.37;100509.31;5093840;28;20093;-62
2023/03/06 10:35:50;;;;;;;10.98;4.97;;;;;;;4.74;98.88;100511.16;5093420;28;20048;-63
2023/03/06 10:38:25;;;;;;;8.80;4.75;;;;;;;4.75;99.55;100507.41;5092253;28;20198;-63
2023/03/06 10:41:15;;;;;;;8.30;5.10;;;;;;;4.81;98.92;100507.28;5093347;28;20044;-64
2023/03/06 10:44:02;;;;;;;9.10;4.90;;;;;;;4.80;98.73;100510.22;5092087;28;20052;-62
2023/03/06 10:46:41;;;;;;;8.35;4.63;;;;;;;4.82;98.32;100516.22;5093784;28;20056;-64
2023/03/06 10:49:26;;;;;;;6.00;3.80;;;;;;;4.75;94.38;100510.94;5092276;28;20493;-63
2023/03/06 10:52:02;;;;;;;5.22;3.55;;;;;;;4.74;93.49;100509.31;5100951;28;20050;-63
2023/03/06 10:54:33;;;;;;;6.47;3.90;;;;;;;4.75;92.90;100510.13;5106606;28;20048;-64
2023/03/06 10:57:17;;;;;;;7.80;3.85;;;;;;;4.75;93.70;100510.94;5106430;28;20104;-61
2023/03/06 10:59:54;;;;;;;6.38;3.80;;;;;;;4.78;94.64;100515.03;5095905;28;20036;-65
2023/03/06 11:02:28;;;;;;;9.23;4.18;;;;;;;4.81;95.15;100509.16;5106521;28;20067;-63
2023/03/06 11:04:57;;;;;;;9.95;5.13;;;;;;;4.81;95.04;100512.69;5105307;28;20051;-63
2023/03/06 11:07:33;;;;;;;8.05;4.40;;;;;;;4.86;95.62;100511.97;5095396;28;20103;-62
2023/03/06 11:10:15;;;;;;;5.75;3.80;;;;;;;4.87;95.18;100510.91;5092513;28;20040;-62
2023/03/06 11:12:55;;;;;;;8.15;4.10;;;;;;;4.94;95.40;100511.59;5092344;28;20535;-62
2023/03/06 11:15:24;;;;;;;8.07;4.13;;;;;;;4.93;94.58;100507.28;5106871;28;20404;-63
2023/03/06 11:17:53;;;;;;;8.55;4.75;;;;;;;4.90;95.89;100502.31;5097138;28;20135;-64
2023/03/06 11:20:24;;;;;;;7.88;4.20;;;;;;;4.91;96.34;100501.28;5097212;28;20401;-62
2023/03/06 11:22:56;;;;;;;7.38;4.28;;;;;;;4.91;94.97;100494.00;5097094;28;20080;-64
2023/03/06 11:25:33;;;;;;;8.05;4.30;;;;;;;4.88;94.42;100505.28;5110929;27;20048;-62
2023/03/06 11:28:21;;;;;;;7.20;4.22;;;;;;;4.88;95.38;100499.03;5113870;28;20036;-63
2023/03/06 11:31:11;;;;;;;9.07;4.40;;;;;;;4.91;97.68;100498.59;5102388;28;20056;-62
2023/03/06 11:34:08;;;;;;;8.90;4.78;;;;;;;4.91;97.40;100501.28;5120285;28;20134;-64
2023/03/06 11:36:48;;;;;;;9.10;5.13;;;;;;;4.89;98.99;100500.72;5114776;28;20055;-62
2023/03/06 11:39:15;;;;;;;;;;;;;;;4.88;99.04;100488.25;5100143;27;20051;-63